createdAt,value
2022-10-26T00:02:14.636Z,1.00
2022-10-26T00:04:44.911Z,0.80
2022-10-26T00:07:14.869Z,1.25
2022-10-26T00:09:44.645Z,1.50
2022-10-26T00:12:14.354Z,1.60
2022-10-26T00:14:44.136Z,1.00
2022-10-26T00:17:14.047Z,1.30
2022-10-26T00:19:46.537Z,1.38
2022-10-26T00:22:16.647Z,1.40
2022-10-26T00:24:47.014Z,1.40
2022-10-26T00:27:16.782Z,1.08
2022-10-26T00:29:46.757Z,0.93
2022-10-26T00:32:16.464Z,1.27
2022-10-26T00:34:46.314Z,1.27
2022-10-26T00:37:16.124Z,1.20
2022-10-26T00:39:45.990Z,1.30
2022-10-26T00:42:21.410Z,1.40
2022-10-26T00:44:51.252Z,1.52
2022-10-26T00:47:38.183Z,1.58
2022-10-26T00:50:17.690Z,1.30
2022-10-26T00:52:47.935Z,1.42
2022-10-26T00:55:22.420Z,1.60
2022-10-26T00:57:54.861Z,1.40
2022-10-26T01:00:24.765Z,1.20
2022-10-26T01:02:57.238Z,1.70
2022-10-26T01:05:28.603Z,1.50
2022-10-26T01:07:59.294Z,1.25
2022-10-26T01:10:30.413Z,1.52
2022-10-26T01:13:01.092Z,1.75
2022-10-26T01:16:04.062Z,1.65
2022-10-26T01:19:21.325Z,1.60
2022-10-26T01:22:04.616Z,1.58
2022-10-26T01:24:48.133Z,1.33
2022-10-26T01:27:26.765Z,1.52
2022-10-26T01:30:26.821Z,1.58
2022-10-26T01:33:15.065Z,1.52
2022-10-26T01:36:11.377Z,1.33
2022-10-26T01:38:53.453Z,1.42
2022-10-26T01:41:37.692Z,1.38
2022-10-26T01:44:32.728Z,1.33
2022-10-26T01:47:04.826Z,0.98
2022-10-26T01:49:41.207Z,1.15
2022-10-26T01:52:12.289Z,1.58
2022-10-26T01:54:42.447Z,1.27
2022-10-26T01:57:15.978Z,1.30
2022-10-26T02:00:10.738Z,1.27
2022-10-26T02:02:50.700Z,1.13
2022-10-26T02:05:29.420Z,1.58
2022-10-26T02:08:29.116Z,1.52
2022-10-26T02:11:39.478Z,1.60
2022-10-26T02:14:18.636Z,1.80
2022-10-26T02:16:59.378Z,1.27
2022-10-26T02:19:32.440Z,1.48
2022-10-26T02:22:13.521Z,1.55
2022-10-26T02:24:45.169Z,1.58
2022-10-26T02:27:22.642Z,1.80
2022-10-26T02:29:55.114Z,1.33
2022-10-26T02:32:28.650Z,1.30
2022-10-26T02:35:01.197Z,1.50
2022-10-26T02:37:33.489Z,1.67
2022-10-26T02:40:07.769Z,1.48
2022-10-26T02:42:39.413Z,2.15
2022-10-26T02:45:14.442Z,1.75
2022-10-26T02:47:44.816Z,1.98
2022-10-26T02:50:14.870Z,1.90
2022-10-26T02:52:53.857Z,1.42
2022-10-26T02:55:48.534Z,1.70
2022-10-26T02:58:32.683Z,2.03
2022-10-26T03:01:03.096Z,1.77
2022-10-26T03:03:33.445Z,1.98
2022-10-26T03:06:03.108Z,1.60
2022-10-26T03:08:32.834Z,1.80
2022-10-26T03:11:02.733Z,1.70
2022-10-26T03:13:32.650Z,2.05
2022-10-26T03:16:02.427Z,1.75
2022-10-26T03:18:32.144Z,2.10
2022-10-26T03:21:01.969Z,1.48
2022-10-26T03:23:31.697Z,1.63
2022-10-26T03:26:01.881Z,2.13
2022-10-26T03:28:33.482Z,1.63
2022-10-26T03:31:03.597Z,1.90
2022-10-26T03:33:35.285Z,2.20
2022-10-26T03:36:05.875Z,1.80
2022-10-26T03:38:35.738Z,1.80
2022-10-26T03:41:05.479Z,1.80
2022-10-26T03:43:35.140Z,1.40
2022-10-26T03:46:04.893Z,1.73
2022-10-26T03:48:34.595Z,1.75
2022-10-26T03:51:04.864Z,1.60
2022-10-26T03:53:34.733Z,2.17
2022-10-26T03:56:06.131Z,1.92
2022-10-26T03:58:36.288Z,1.80
2022-10-26T04:01:06.034Z,1.63
2022-10-26T04:03:35.768Z,1.75
2022-10-26T04:06:06.513Z,1.85
2022-10-26T04:08:36.439Z,2.50
2022-10-26T04:11:06.277Z,1.80
2022-10-26T04:13:36.035Z,1.90
2022-10-26T04:16:05.874Z,1.70
2022-10-26T04:18:35.554Z,1.85
2022-10-26T04:21:05.394Z,1.63
2022-10-26T04:23:35.049Z,2.08
2022-10-26T04:26:07.176Z,2.17
2022-10-26T04:28:37.312Z,2.13
2022-10-26T04:31:07.050Z,2.03
2022-10-26T04:33:36.784Z,2.50
2022-10-26T04:36:06.710Z,2.88
2022-10-26T04:38:36.384Z,2.30
2022-10-26T04:41:06.259Z,2.45
2022-10-26T04:43:35.923Z,2.28
2022-10-26T04:46:06.589Z,2.20
2022-10-26T04:48:36.261Z,2.30
2022-10-26T04:51:05.975Z,1.98
2022-10-26T04:53:35.745Z,2.60
2022-10-26T04:56:07.673Z,2.45
2022-10-26T04:58:37.855Z,2.72
2022-10-26T05:01:08.723Z,2.40
2022-10-26T05:03:38.981Z,2.78
2022-10-26T05:06:08.766Z,2.58
2022-10-26T05:08:38.585Z,2.40
2022-10-26T05:11:08.238Z,2.40
2022-10-26T05:13:37.888Z,2.72
2022-10-26T05:16:07.913Z,2.45
2022-10-26T05:18:37.590Z,2.28
2022-10-26T05:21:07.540Z,2.83
2022-10-26T05:23:37.185Z,2.72
2022-10-26T05:26:06.961Z,2.30
2022-10-26T05:28:36.622Z,2.92
2022-10-26T05:31:06.488Z,2.78
2022-10-26T05:33:37.036Z,3.28
2022-10-26T05:36:07.909Z,2.70
2022-10-26T05:38:37.819Z,2.28
2022-10-26T05:41:07.559Z,2.78
2022-10-26T05:43:37.627Z,3.08
2022-10-26T05:46:07.859Z,2.92
2022-10-26T05:48:37.874Z,2.83
2022-10-26T05:51:07.644Z,2.85
2022-10-26T05:53:37.720Z,2.72
2022-10-26T05:56:36.158Z,2.78
2022-10-26T05:59:13.425Z,3.05
2022-10-26T06:01:58.480Z,3.30
2022-10-26T06:04:49.066Z,3.15
2022-10-26T06:07:24.335Z,3.28
2022-10-26T06:09:54.812Z,3.78
2022-10-26T06:12:26.650Z,3.92
2022-10-26T06:14:57.726Z,3.40
2022-10-26T06:17:51.193Z,3.70
2022-10-26T06:20:49.039Z,3.30
2022-10-26T06:23:51.913Z,3.38
2022-10-26T06:26:22.155Z,3.58
2022-10-26T06:28:59.311Z,3.67
2022-10-26T06:31:29.851Z,3.63
2022-10-26T06:34:02.017Z,4.10
2022-10-26T06:36:32.856Z,3.58
2022-10-26T06:39:11.681Z,3.63
2022-10-26T06:41:42.022Z,3.83
2022-10-26T06:44:23.295Z,4.22
2022-10-26T06:46:56.182Z,3.72
2022-10-26T06:50:04.494Z,3.92
2022-10-26T06:52:50.378Z,3.75
2022-10-26T06:55:20.781Z,3.97
2022-10-26T06:57:51.587Z,3.97
2022-10-26T07:00:26.549Z,4.28
2022-10-26T07:02:57.528Z,4.32
2022-10-26T07:05:27.335Z,4.43
2022-10-26T07:07:57.034Z,3.88
2022-10-26T07:10:26.789Z,4.03
2022-10-26T07:12:56.526Z,4.53
2022-10-26T07:15:26.256Z,4.50
2022-10-26T07:17:55.924Z,4.38
2022-10-26T07:20:25.620Z,4.60
2022-10-26T07:23:00.047Z,4.13
2022-10-26T07:25:30.515Z,4.45
2022-10-26T07:28:01.296Z,4.45
2022-10-26T07:30:31.804Z,5.05
2022-10-26T07:33:07.072Z,4.63
2022-10-26T07:35:37.307Z,4.18
2022-10-26T07:38:07.892Z,4.57
2022-10-26T07:40:39.254Z,4.47
2022-10-26T07:43:09.140Z,4.18
2022-10-26T07:45:38.851Z,3.92
2022-10-26T07:48:08.961Z,5.28
2022-10-26T07:50:38.633Z,3.67
2022-10-26T07:53:08.426Z,4.43
2022-10-26T07:55:38.089Z,4.40
2022-10-26T08:00:36.987Z,4.10
2022-10-26T08:03:07.632Z,4.45
2022-10-26T08:05:37.567Z,4.57
2022-10-26T08:08:07.285Z,4.47
2022-10-26T08:10:36.936Z,4.63
2022-10-26T08:13:06.813Z,4.70
2022-10-26T08:18:06.530Z,3.92
2022-10-26T08:20:36.531Z,3.42
2022-10-26T08:23:07.411Z,3.63
2022-10-26T08:25:37.319Z,4.22
2022-10-26T08:28:07.548Z,4.20
2022-10-26T08:30:37.281Z,3.25
2022-10-26T08:33:08.884Z,3.85
2022-10-26T08:35:39.061Z,3.78
2022-10-26T08:38:08.739Z,4.22
2022-10-26T08:40:43.535Z,3.63
2022-10-26T08:43:28.294Z,3.78
2022-10-26T08:46:27.122Z,4.30
2022-10-26T08:49:20.440Z,4.07
2022-10-26T08:51:52.647Z,4.18
2022-10-26T08:54:39.768Z,4.20
2022-10-26T08:57:45.978Z,4.55
2022-10-26T09:00:24.355Z,4.28
2022-10-26T09:02:55.412Z,4.63
2022-10-26T09:05:43.759Z,3.50
2022-10-26T09:08:21.969Z,3.75
2022-10-26T09:11:34.798Z,3.55
2022-10-26T09:14:14.155Z,4.22
2022-10-26T09:17:07.804Z,4.07
2022-10-26T09:19:57.999Z,4.40
2022-10-26T09:22:39.639Z,4.03
2022-10-26T09:25:20.375Z,4.00
2022-10-26T09:28:02.002Z,4.45
2022-10-26T09:30:32.172Z,3.85
2022-10-26T09:33:07.783Z,4.15
2022-10-26T09:35:59.664Z,3.53
2022-10-26T09:38:34.886Z,4.20
2022-10-26T09:41:32.023Z,4.50
2022-10-26T09:44:19.866Z,4.05
2022-10-26T09:47:17.696Z,4.45
2022-10-26T09:50:05.180Z,4.20
2022-10-26T09:52:35.227Z,4.38
2022-10-26T09:55:04.956Z,4.68
2022-10-26T09:57:36.423Z,3.60
2022-10-26T10:00:07.118Z,3.83
2022-10-26T10:02:47.400Z,5.70
2022-10-26T10:05:50.754Z,3.97
2022-10-26T10:08:28.768Z,3.13
2022-10-26T10:11:09.148Z,3.30
2022-10-26T10:13:47.130Z,2.72
2022-10-26T10:16:26.310Z,3.30
2022-10-26T10:18:59.811Z,3.30
2022-10-26T10:21:38.060Z,3.25
2022-10-26T10:24:25.760Z,2.90
2022-10-26T10:27:17.473Z,2.85
2022-10-26T10:29:51.168Z,3.72
2022-10-26T10:32:23.444Z,2.75
2022-10-26T10:34:55.321Z,3.38
2022-10-26T10:37:28.054Z,2.97
2022-10-26T10:40:05.235Z,3.15
2022-10-26T10:42:39.545Z,3.45
2022-10-26T10:45:20.953Z,5.25
2022-10-26T10:48:21.698Z,5.18
2022-10-26T10:51:12.100Z,3.15
2022-10-26T10:54:19.449Z,3.70
2022-10-26T10:56:56.248Z,3.03
2022-10-26T10:59:58.224Z,3.13
2022-10-26T11:02:45.630Z,2.63
2022-10-26T11:08:33.489Z,2.63
2022-10-26T11:11:11.467Z,3.30
2022-10-26T11:14:07.072Z,2.75
2022-10-26T11:16:49.029Z,3.00
2022-10-26T11:19:22.178Z,2.63
2022-10-26T11:21:59.347Z,3.13
2022-10-26T11:24:44.639Z,3.63
2022-10-26T11:27:43.754Z,3.17
2022-10-26T11:30:26.961Z,3.95
2022-10-26T11:33:05.501Z,3.40
2022-10-26T11:35:56.275Z,2.83
2022-10-26T11:38:46.719Z,2.08
2022-10-26T11:41:32.731Z,3.55
2022-10-26T11:44:23.905Z,2.83
2022-10-26T11:47:18.556Z,2.28
2022-10-26T11:50:17.712Z,2.40
2022-10-26T11:53:01.621Z,2.40
2022-10-26T11:55:32.438Z,2.22
2022-10-26T11:58:04.092Z,2.20
2022-10-26T12:00:36.165Z,2.20
2022-10-26T12:03:15.614Z,1.98
2022-10-26T12:05:54.419Z,3.10
2022-10-26T12:08:45.422Z,2.30
2022-10-26T12:11:39.737Z,2.45
2022-10-26T12:14:26.057Z,2.35
2022-10-26T12:17:16.806Z,1.83
2022-10-26T12:20:20.231Z,2.03
2022-10-26T12:22:50.939Z,1.73
2022-10-26T12:25:23.574Z,2.80
2022-10-26T12:27:59.438Z,2.35
2022-10-26T12:30:34.998Z,1.65
2022-10-26T12:33:26.044Z,2.42
2022-10-26T12:35:56.026Z,1.98
2022-10-26T12:38:28.980Z,1.88
2022-10-26T12:41:13.213Z,2.03
2022-10-26T12:46:18.404Z,2.10
2022-10-26T12:48:49.797Z,2.92
2022-10-26T12:51:32.665Z,2.65
2022-10-26T12:54:44.000Z,2.28
2022-10-26T12:57:20.722Z,1.80
2022-10-26T13:00:07.929Z,1.55
2022-10-26T13:03:10.134Z,1.55
2022-10-26T13:06:01.025Z,2.10
2022-10-26T13:08:51.005Z,1.77
2022-10-26T13:11:33.060Z,1.50
2022-10-26T13:14:10.562Z,1.67
2022-10-26T13:16:47.172Z,2.03
2022-10-26T13:19:50.778Z,1.65
2022-10-26T13:22:25.606Z,1.95
2022-10-26T13:25:01.178Z,2.13
2022-10-26T13:27:37.159Z,1.60
2022-10-26T13:30:07.764Z,1.92
2022-10-26T13:32:55.036Z,2.65
2022-10-26T13:37:57.385Z,1.75
2022-10-26T13:40:30.983Z,2.13
2022-10-26T13:43:05.734Z,2.13
2022-10-26T13:46:03.640Z,1.80
2022-10-26T13:48:42.293Z,1.52
2022-10-26T13:51:26.189Z,1.83
2022-10-26T13:54:09.271Z,1.55
2022-10-26T13:56:45.464Z,2.00
2022-10-26T14:01:46.637Z,1.67
2022-10-26T14:04:26.820Z,1.95
2022-10-26T14:06:57.495Z,2.03
2022-10-26T14:09:27.251Z,1.52
2022-10-26T14:12:03.926Z,1.83
2022-10-26T14:14:41.170Z,2.00
2022-10-26T14:17:21.174Z,2.03
2022-10-26T14:19:52.485Z,1.70
2022-10-26T14:22:31.590Z,1.88
2022-10-26T14:25:02.958Z,2.00
2022-10-26T14:27:35.356Z,1.80
2022-10-26T14:30:32.594Z,1.90
2022-10-26T14:33:02.797Z,1.90
2022-10-26T14:35:38.713Z,1.92
2022-10-26T14:38:19.050Z,1.52
2022-10-26T14:40:50.449Z,1.95
2022-10-26T14:43:24.831Z,1.90
2022-10-26T14:45:55.994Z,1.85
2022-10-26T14:48:37.030Z,1.83
2022-10-26T14:51:20.519Z,1.42
2022-10-26T14:53:55.164Z,1.67
2022-10-26T14:56:41.288Z,2.05
2022-10-26T14:59:33.036Z,1.67
2022-10-26T15:02:23.742Z,1.92
2022-10-26T15:05:18.739Z,1.63
2022-10-26T15:07:49.194Z,1.70
2022-10-26T15:10:37.847Z,2.00
2022-10-26T15:13:21.844Z,1.70
2022-10-26T15:15:54.950Z,1.77
2022-10-26T15:18:34.830Z,2.08
2022-10-26T15:21:05.320Z,1.80
2022-10-26T15:23:39.525Z,1.75
2022-10-26T15:26:13.362Z,1.75
2022-10-26T15:28:44.616Z,1.73
2022-10-26T15:31:15.716Z,1.88
2022-10-26T15:33:54.693Z,1.67
2022-10-26T15:36:32.830Z,1.70
2022-10-26T15:39:03.022Z,1.67
2022-10-26T15:41:40.082Z,1.80
2022-10-26T15:44:20.818Z,2.13
2022-10-26T15:46:51.714Z,1.17
2022-10-26T15:49:23.672Z,1.50
2022-10-26T15:51:54.555Z,1.83
2022-10-26T15:54:24.583Z,1.65
2022-10-26T15:56:54.784Z,1.90
2022-10-26T15:59:24.642Z,1.38
2022-10-26T16:01:54.633Z,1.70
2022-10-26T16:04:24.408Z,4.57
2022-10-26T16:06:54.894Z,2.30
2022-10-26T16:09:24.973Z,1.88
2022-10-26T16:11:54.646Z,1.42
2022-10-26T16:14:24.679Z,1.50
2022-10-26T16:16:57.627Z,1.52
2022-10-26T16:19:31.570Z,1.42
2022-10-26T16:22:02.957Z,2.03
2022-10-26T16:24:33.335Z,1.35
2022-10-26T16:27:03.021Z,2.22
2022-10-26T16:29:32.858Z,1.27
2022-10-26T16:32:02.564Z,1.63
2022-10-26T16:34:32.231Z,1.50
2022-10-26T16:37:01.880Z,1.80
2022-10-26T16:39:31.555Z,1.20
2022-10-26T16:42:02.994Z,1.65
2022-10-26T16:44:33.780Z,1.40
2022-10-26T16:47:03.534Z,1.55
2022-10-26T16:49:33.210Z,1.50
2022-10-26T16:52:02.872Z,1.50
2022-10-26T16:54:32.625Z,1.30
2022-10-26T16:57:02.593Z,1.30
2022-10-26T16:59:32.437Z,1.23
2022-10-26T17:02:02.188Z,1.13
2022-10-26T17:04:31.980Z,1.10
2022-10-26T17:07:01.693Z,1.40
2022-10-26T17:09:31.397Z,1.10
2022-10-26T17:12:02.173Z,1.20
2022-10-26T17:14:33.110Z,1.17
2022-10-26T17:17:03.233Z,1.58
2022-10-26T17:19:32.919Z,1.20
2022-10-26T17:22:05.098Z,1.52
2022-10-26T17:24:38.197Z,1.60
2022-10-26T17:27:07.908Z,1.27
2022-10-26T17:29:37.810Z,1.08
2022-10-26T17:32:07.576Z,1.63
2022-10-26T17:34:37.332Z,1.45
2022-10-26T17:37:07.019Z,1.33
2022-10-26T17:39:36.720Z,1.30
2022-10-26T17:42:06.511Z,1.20
2022-10-26T17:44:40.070Z,1.20
2022-10-26T17:47:10.968Z,1.33
2022-10-26T17:49:40.893Z,1.27
2022-10-26T17:52:10.628Z,1.02
2022-10-26T17:54:40.312Z,0.98
2022-10-26T17:57:10.004Z,1.10
2022-10-26T17:59:40.348Z,1.38
2022-10-26T18:02:11.975Z,1.00
2022-10-26T18:04:42.322Z,1.25
2022-10-26T18:07:11.995Z,1.00
2022-10-26T18:09:41.688Z,1.30
2022-10-26T18:12:12.138Z,1.20
2022-10-26T18:14:42.341Z,1.17
2022-10-26T18:17:12.013Z,1.33
2022-10-26T18:19:41.689Z,1.30
2022-10-26T18:22:11.396Z,1.42
2022-10-26T18:24:41.385Z,1.13
2022-10-26T18:27:12.545Z,1.10
2022-10-26T18:29:42.694Z,1.45
2022-10-26T18:32:12.397Z,1.30
2022-10-26T18:34:42.059Z,1.23
2022-10-26T18:37:14.367Z,0.98
2022-10-26T18:39:44.755Z,2.70
2022-10-26T18:42:14.475Z,1.05
2022-10-26T18:44:44.196Z,3.80
2022-10-26T18:47:13.901Z,1.50
2022-10-26T18:49:44.625Z,1.25
2022-10-26T18:52:14.475Z,1.27
2022-10-26T18:54:44.198Z,1.45
2022-10-26T18:57:13.870Z,2.00
2022-10-26T18:59:44.499Z,1.60
2022-10-26T19:02:16.651Z,1.63
2022-10-26T19:04:46.515Z,1.60
2022-10-26T19:07:16.485Z,2.88
2022-10-26T19:09:46.229Z,1.38
2022-10-26T19:12:16.362Z,1.35
2022-10-26T19:14:46.137Z,1.40
2022-10-26T19:17:15.877Z,1.42
2022-10-26T19:19:45.635Z,1.50
2022-10-26T19:22:15.367Z,2.25
2022-10-26T19:24:48.758Z,3.75
2022-10-26T19:27:18.891Z,1.35
2022-10-26T19:29:48.579Z,1.60
2022-10-26T19:32:18.247Z,1.60
2022-10-26T19:34:48.246Z,1.63
2022-10-26T19:37:19.062Z,1.65
2022-10-26T19:39:49.275Z,1.50
2022-10-26T19:42:18.928Z,1.67
2022-10-26T19:44:49.096Z,1.60
2022-10-26T19:47:19.088Z,1.75
2022-10-26T19:49:53.091Z,2.17
2022-10-26T19:52:23.434Z,6.93
2022-10-26T19:54:53.289Z,1.80
2022-10-26T19:57:23.006Z,1.52
2022-10-26T19:59:52.726Z,1.63
2022-10-26T20:02:22.444Z,2.13
2022-10-26T20:04:53.226Z,2.30
2022-10-26T20:07:24.003Z,1.73
2022-10-26T20:09:58.508Z,1.58
2022-10-26T20:12:32.150Z,1.40
2022-10-26T20:15:03.036Z,1.52
2022-10-26T20:17:36.951Z,1.52
2022-10-26T20:20:07.732Z,2.70
2022-10-26T20:22:37.397Z,2.95
2022-10-26T20:25:07.596Z,2.67
2022-10-26T20:27:42.471Z,2.00
2022-10-26T20:30:13.067Z,2.08
2022-10-26T20:32:42.905Z,2.38
2022-10-26T20:35:12.763Z,2.42
2022-10-26T20:37:42.982Z,4.75
2022-10-26T20:40:13.399Z,2.47
2022-10-26T20:42:43.642Z,2.53
2022-10-26T20:45:29.506Z,2.22
2022-10-26T20:48:01.132Z,2.38
2022-10-26T20:50:32.069Z,2.03
2022-10-26T20:53:12.183Z,2.25
2022-10-26T20:55:47.871Z,2.63
2022-10-26T20:58:38.882Z,2.13
2022-10-26T21:01:11.818Z,2.92
2022-10-26T21:03:42.476Z,2.55
2022-10-26T21:06:13.581Z,2.50
2022-10-26T21:08:43.710Z,2.17
2022-10-26T21:11:14.327Z,2.35
2022-10-26T21:13:45.890Z,2.53
2022-10-26T21:16:16.714Z,2.15
2022-10-26T21:18:47.593Z,2.40
2022-10-26T21:21:17.583Z,2.95
2022-10-26T21:23:47.525Z,1.88
2022-10-26T21:26:17.222Z,2.10
2022-10-26T21:28:47.025Z,2.05
2022-10-26T21:31:19.348Z,1.95
2022-10-26T21:33:49.692Z,2.20
2022-10-26T21:36:19.693Z,1.48
2022-10-26T21:38:49.560Z,2.30
2022-10-26T21:41:21.536Z,1.65
2022-10-26T21:44:03.240Z,1.13
2022-10-26T21:46:40.082Z,1.55
2022-10-26T21:49:09.790Z,1.63
2022-10-26T21:51:39.518Z,2.35
2022-10-26T21:54:09.315Z,0.98
2022-10-26T21:56:39.115Z,1.60
2022-10-26T21:59:08.990Z,1.27
2022-10-26T22:01:38.844Z,0.93
2022-10-26T22:04:08.611Z,1.42
2022-10-26T22:06:38.553Z,0.80
2022-10-26T22:09:08.531Z,1.15
2022-10-26T22:11:38.438Z,1.45
2022-10-26T22:14:08.190Z,1.58
2022-10-26T22:16:37.908Z,1.08
2022-10-26T22:19:09.378Z,1.10
2022-10-26T22:21:42.099Z,1.23
2022-10-26T22:24:12.376Z,1.35
2022-10-26T22:26:42.992Z,2.13
2022-10-26T22:29:13.949Z,1.58
2022-10-26T22:31:43.855Z,0.82
2022-10-26T22:34:18.120Z,1.65
2022-10-26T22:36:48.230Z,1.05
2022-10-26T22:39:18.958Z,1.25
2022-10-26T22:41:50.562Z,2.20
2022-10-26T22:44:20.561Z,2.50
2022-10-26T22:46:50.302Z,2.30
2022-10-26T22:49:20.050Z,1.67
2022-10-26T22:51:49.757Z,2.08
2022-10-26T22:54:19.747Z,1.73
2022-10-26T22:56:49.442Z,2.00
2022-10-26T22:59:19.184Z,1.70
2022-10-26T23:01:49.099Z,1.55
2022-10-26T23:04:18.917Z,1.35
2022-10-26T23:06:48.601Z,1.50
2022-10-26T23:09:18.550Z,0.90
2022-10-26T23:11:48.268Z,1.52
2022-10-26T23:14:17.935Z,1.52
2022-10-26T23:16:47.618Z,1.30
2022-10-26T23:19:17.456Z,1.15
2022-10-26T23:21:47.187Z,1.17
2022-10-26T23:24:17.229Z,1.42
2022-10-26T23:26:46.935Z,1.85
2022-10-26T23:29:16.729Z,1.27
2022-10-26T23:31:46.457Z,1.10
2022-10-26T23:34:16.202Z,1.10
2022-10-26T23:36:45.995Z,1.13
2022-10-26T23:39:15.746Z,1.40
2022-10-26T23:41:45.671Z,1.58
2022-10-26T23:44:15.685Z,1.40
2022-10-26T23:46:45.487Z,1.40
2022-10-26T23:49:15.190Z,1.42
2022-10-26T23:51:45.003Z,1.60
2022-10-26T23:54:14.702Z,1.52
2022-10-26T23:56:44.543Z,1.10
2022-10-26T23:59:15.207Z,1.30
